Time;durP1;ratioP1;P1;durP2;ratioP2;P2;SDS_P1;SDS_P2;PMS_P1;PMS_P2;Temp;Humidity;BMP_temperature;BMP_pressure;BME280_temperature;BME280_humidity;BME280_pressure;Samples;Min_cycle;Max_cycle;Signal;HPM_P1;HPM_P2
2022/03/03 00:01:41;;;;;;;31.30;28.70;;;;;;;;;;4993954;28;20601;-81
2022/03/03 00:04:08;;;;;;;32.70;29.98;;;;;;;;;;4993842;28;20230;-82
2022/03/03 00:06:36;;;;;;;31.38;28.83;;;;;;;;;;4994169;28;20191;-81
2022/03/03 00:09:05;;;;;;;32.80;30.13;;;;;;;;;;4993863;28;20191;-81
2022/03/03 00:11:32;;;;;;;31.23;28.73;;;;;;;;;;4993396;28;20210;-81
2022/03/03 00:14:00;;;;;;;31.85;28.60;;;;;;;;;;4993683;28;20194;-80
2022/03/03 00:16:29;;;;;;;31.20;28.60;;;;;;;;;;4993693;28;20198;-81
2022/03/03 00:18:56;;;;;;;30.95;28.33;;;;;;;;;;4993773;28;20187;-81
2022/03/03 00:21:23;;;;;;;30.65;28.17;;;;;;;;;;4993565;28;20213;-81
2022/03/03 00:23:51;;;;;;;30.90;28.25;;;;;;;;;;4997460;28;20218;-81
2022/03/03 00:26:18;;;;;;;32.35;29.52;;;;;;;;;;4997365;28;20657;-80
2022/03/03 00:28:45;;;;;;;31.92;29.35;;;;;;;;;;4997212;28;20218;-82
2022/03/03 00:31:13;;;;;;;30.70;28.30;;;;;;;;;;4997405;28;20207;-81
2022/03/03 00:33:42;;;;;;;30.88;28.48;;;;;;;;;;4997195;28;20254;-81
2022/03/03 00:36:10;;;;;;;29.85;27.58;;;;;;;;;;4997348;28;20195;-80
2022/03/03 00:38:37;;;;;;;32.53;29.80;;;;;;;;;;4997288;28;20187;-81
2022/03/03 00:41:05;;;;;;;31.92;29.17;;;;;;;;;;4997305;28;20218;-81
2022/03/03 00:43:32;;;;;;;30.77;28.23;;;;;;;;;;4997143;28;20640;-80
2022/03/03 00:46:00;;;;;;;32.03;29.55;;;;;;;;;;4997001;28;20234;-81
2022/03/03 00:48:27;;;;;;;29.58;27.27;;;;;;;;;;4997018;28;20195;-81
2022/03/03 00:50:56;;;;;;;31.75;29.25;;;;;;;;;;4979484;28;20657;-81
2022/03/03 00:53:24;;;;;;;30.25;27.95;;;;;;;;;;4997132;28;20195;-82
2022/03/03 00:55:51;;;;;;;31.35;28.95;;;;;;;;;;4997165;28;20233;-81
2022/03/03 00:58:19;;;;;;;31.63;29.13;;;;;;;;;;4997168;28;20191;-81
2022/03/03 01:00:46;;;;;;;30.70;28.25;;;;;;;;;;4996653;28;20254;-80
2022/03/03 01:03:13;;;;;;;31.10;28.70;;;;;;;;;;4996904;28;20222;-81
2022/03/03 01:05:41;;;;;;;29.80;27.52;;;;;;;;;;4996658;28;20202;-81
2022/03/03 01:08:10;;;;;;;30.02;27.63;;;;;;;;;;4996746;28;20191;-80
2022/03/03 01:10:38;;;;;;;30.75;28.20;;;;;;;;;;4996571;28;20212;-81
2022/03/03 01:13:05;;;;;;;30.15;28.02;;;;;;;;;;4996783;28;20191;-81
2022/03/03 01:15:33;;;;;;;32.50;29.85;;;;;;;;;;4996382;28;20222;-81
2022/03/03 01:18:00;;;;;;;30.55;28.23;;;;;;;;;;4996539;28;20190;-81
2022/03/03 01:20:28;;;;;;;30.95;28.58;;;;;;;;;;4996637;28;20197;-80
2022/03/03 01:22:55;;;;;;;31.10;28.88;;;;;;;;;;4996735;28;20635;-81
2022/03/03 01:25:24;;;;;;;28.60;26.23;;;;;;;;;;4996497;28;20198;-81
2022/03/03 01:27:52;;;;;;;31.85;29.25;;;;;;;;;;4996599;28;20187;-82
2022/03/03 01:30:19;;;;;;;31.90;29.02;;;;;;;;;;4996398;28;20249;-81
2022/03/03 01:32:47;;;;;;;30.88;28.27;;;;;;;;;;4979398;28;20203;-81
2022/03/03 01:35:14;;;;;;;31.85;29.35;;;;;;;;;;4995787;28;20194;-82
2022/03/03 01:37:42;;;;;;;30.05;27.65;;;;;;;;;;4996421;28;20195;-82
2022/03/03 01:40:10;;;;;;;29.92;27.52;;;;;;;;;;4996429;28;20198;-82
2022/03/03 01:42:40;;;;;;;30.20;27.80;;;;;;;;;;4995936;28;20191;-83
2022/03/03 01:45:08;;;;;;;30.92;28.35;;;;;;;;;;4996166;28;20230;-82
2022/03/03 01:47:35;;;;;;;31.35;28.85;;;;;;;;;;4978802;28;20234;-82
2022/03/03 01:50:04;;;;;;;31.27;28.75;;;;;;;;;;4996250;28;20199;-81
2022/03/03 01:52:32;;;;;;;30.95;28.60;;;;;;;;;;4996422;28;20198;-81
2022/03/03 01:55:00;;;;;;;31.20;28.80;;;;;;;;;;4996045;28;20297;-82
2022/03/03 01:57:27;;;;;;;30.00;27.83;;;;;;;;;;4996187;28;20593;-83
2022/03/03 01:59:56;;;;;;;31.08;28.58;;;;;;;;;;4996274;28;20186;-82
2022/03/03 02:02:24;;;;;;;29.58;27.20;;;;;;;;;;4996288;28;20202;-82
2022/03/03 02:04:52;;;;;;;30.98;28.40;;;;;;;;;;4996356;28;20229;-82
2022/03/03 02:07:20;;;;;;;30.13;27.73;;;;;;;;;;4996215;28;20245;-83
2022/03/03 02:09:47;;;;;;;31.42;28.77;;;;;;;;;;4996063;28;20197;-83
2022/03/03 02:12:15;;;;;;;32.05;29.42;;;;;;;;;;4995699;28;20637;-82
2022/03/03 02:14:43;;;;;;;30.40;27.85;;;;;;;;;;4995924;28;20229;-82
2022/03/03 02:17:13;;;;;;;31.63;29.08;;;;;;;;;;4995560;28;20723;-81
2022/03/03 02:19:40;;;;;;;30.38;28.10;;;;;;;;;;4995742;28;20191;-82
2022/03/03 02:22:10;;;;;;;31.60;29.17;;;;;;;;;;4995781;28;20191;-82
2022/03/03 02:24:37;;;;;;;30.98;28.60;;;;;;;;;;4995676;28;20649;-82
2022/03/03 02:27:07;;;;;;;28.95;26.65;;;;;;;;;;4995296;28;20646;-81
2022/03/03 02:29:35;;;;;;;31.77;29.15;;;;;;;;;;4977792;28;20222;-81
2022/03/03 02:32:03;;;;;;;30.90;28.50;;;;;;;;;;4995256;28;20198;-82
2022/03/03 02:34:30;;;;;;;32.00;28.98;;;;;;;;;;4995248;28;20191;-81
2022/03/03 02:36:58;;;;;;;29.95;27.75;;;;;;;;;;4995597;28;20198;-82
2022/03/03 02:39:27;;;;;;;31.27;28.48;;;;;;;;;;4995003;28;20191;-83
2022/03/03 02:41:54;;;;;;;30.63;28.10;;;;;;;;;;4995585;28;20187;-83
2022/03/03 02:44:22;;;;;;;30.48;28.13;;;;;;;;;;4977545;28;20639;-83
2022/03/03 02:46:49;;;;;;;28.35;26.25;;;;;;;;;;4993750;28;20234;-82
2022/03/03 02:49:16;;;;;;;31.40;28.77;;;;;;;;;;4994603;28;20207;-82
2022/03/03 02:51:44;;;;;;;31.17;28.70;;;;;;;;;;4995237;28;20202;-82
2022/03/03 02:54:11;;;;;;;30.95;28.75;;;;;;;;;;4994872;28;20282;-82
2022/03/03 02:59:22;;;;;;;30.30;27.83;;;;;;;;;;4993539;28;20203;-81
2022/03/03 03:01:50;;;;;;;29.48;27.20;;;;;;;;;;4994521;28;20225;-82
2022/03/03 03:04:17;;;;;;;27.95;26.02;;;;;;;;;;4994877;28;20620;-82
2022/03/03 03:06:45;;;;;;;28.63;26.42;;;;;;;;;;4994348;28;20195;-81
2022/03/03 03:09:13;;;;;;;30.35;28.13;;;;;;;;;;4994285;28;20661;-82
2022/03/03 03:11:42;;;;;;;29.83;27.50;;;;;;;;;;4994881;28;20195;-82
2022/03/03 03:14:09;;;;;;;27.70;25.70;;;;;;;;;;4976963;28;20203;-82
2022/03/03 03:16:37;;;;;;;29.15;26.77;;;;;;;;;;4994204;28;20592;-83
2022/03/03 03:19:04;;;;;;;29.50;27.30;;;;;;;;;;4994432;28;20577;-81
2022/03/03 03:21:31;;;;;;;29.08;26.98;;;;;;;;;;4994411;28;20197;-82
2022/03/03 03:23:59;;;;;;;30.25;27.98;;;;;;;;;;4994749;28;20223;-83
2022/03/03 03:26:26;;;;;;;30.35;27.85;;;;;;;;;;4994246;28;20194;-83
2022/03/03 03:28:58;;;;;;;29.55;27.60;;;;;;;;;;4976590;28;20254;-81
2022/03/03 03:31:27;;;;;;;31.65;29.27;;;;;;;;;;4976912;28;20202;-82
2022/03/03 03:33:54;;;;;;;30.23;27.77;;;;;;;;;;4994079;28;20653;-82
2022/03/03 03:36:22;;;;;;;29.23;26.88;;;;;;;;;;4993988;28;20253;-81
2022/03/03 03:38:49;;;;;;;29.17;26.75;;;;;;;;;;4994484;28;20187;-82
2022/03/03 03:41:16;;;;;;;30.02;27.73;;;;;;;;;;4994035;28;20641;-83
2022/03/03 03:43:44;;;;;;;30.45;28.23;;;;;;;;;;4976819;28;20218;-82
2022/03/03 03:46:13;;;;;;;29.73;27.52;;;;;;;;;;4993895;28;20234;-83
2022/03/03 03:48:40;;;;;;;30.17;27.88;;;;;;;;;;4994423;28;20526;-82
2022/03/03 03:51:08;;;;;;;30.50;28.00;;;;;;;;;;4993978;28;20218;-82
2022/03/03 03:53:35;;;;;;;29.70;27.40;;;;;;;;;;4994370;28;20198;-82
2022/03/03 03:56:02;;;;;;;28.45;26.20;;;;;;;;;;4994137;28;20235;-83
2022/03/03 03:58:30;;;;;;;29.83;27.75;;;;;;;;;;4994195;28;20209;-82
2022/03/03 04:00:57;;;;;;;31.58;28.80;;;;;;;;;;4994145;28;20191;-81
2022/03/03 04:03:27;;;;;;;29.90;27.70;;;;;;;;;;4976410;28;20202;-82
2022/03/03 04:05:55;;;;;;;30.80;28.50;;;;;;;;;;4993361;28;20209;-82
2022/03/03 04:08:24;;;;;;;28.83;26.48;;;;;;;;;;4993928;28;20199;-81
2022/03/03 04:10:51;;;;;;;31.05;28.70;;;;;;;;;;4993758;28;20290;-82
2022/03/03 04:13:21;;;;;;;29.52;27.33;;;;;;;;;;4993710;28;20191;-80
2022/03/03 04:15:49;;;;;;;30.05;27.85;;;;;;;;;;4993911;28;20235;-82
2022/03/03 04:18:18;;;;;;;29.83;27.17;;;;;;;;;;4993584;28;20202;-81
2022/03/03 04:20:47;;;;;;;31.17;28.67;;;;;;;;;;4993741;28;20199;-82
2022/03/03 04:23:17;;;;;;;30.60;28.20;;;;;;;;;;4993886;28;20191;-82
2022/03/03 04:25:45;;;;;;;30.70;28.08;;;;;;;;;;4976088;28;20656;-81
2022/03/03 04:28:12;;;;;;;33.88;31.15;;;;;;;;;;4976288;28;20233;-82
2022/03/03 04:30:40;;;;;;;33.30;30.50;;;;;;;;;;4993617;28;20233;-82
2022/03/03 04:33:07;;;;;;;37.17;33.90;;;;;;;;;;4993765;28;20195;-82
2022/03/03 04:35:34;;;;;;;35.50;32.30;;;;;;;;;;4993969;28;20199;-82
2022/03/03 04:38:03;;;;;;;37.38;33.90;;;;;;;;;;4993415;28;20202;-83
2022/03/03 04:40:32;;;;;;;47.85;43.03;;;;;;;;;;4993689;28;20199;-82
2022/03/03 04:42:59;;;;;;;54.95;49.10;;;;;;;;;;4976015;28;20206;-82
2022/03/03 04:45:27;;;;;;;56.40;49.78;;;;;;;;;;4972503;28;20246;-82
2022/03/03 04:47:55;;;;;;;54.53;46.13;;;;;;;;;;4974011;28;20196;-81
2022/03/03 04:50:23;;;;;;;51.53;46.00;;;;;;;;;;4974412;28;20192;-81
2022/03/03 04:52:50;;;;;;;53.50;47.88;;;;;;;;;;4974319;28;20549;-82
2022/03/03 04:55:20;;;;;;;49.00;43.85;;;;;;;;;;4974108;28;20191;-82
2022/03/03 04:57:48;;;;;;;47.75;43.03;;;;;;;;;;4974270;28;20200;-83
2022/03/03 05:00:17;;;;;;;53.25;47.50;;;;;;;;;;4974058;28;20219;-82
2022/03/03 05:02:45;;;;;;;51.17;46.03;;;;;;;;;;4973668;28;20303;-81
2022/03/03 05:05:13;;;;;;;53.30;47.70;;;;;;;;;;4973909;28;20231;-82
2022/03/03 05:07:40;;;;;;;53.88;48.33;;;;;;;;;;4973648;28;20222;-82
2022/03/03 05:10:08;;;;;;;56.08;50.35;;;;;;;;;;4976645;28;20653;-82
2022/03/03 05:12:39;;;;;;;59.03;50.45;;;;;;;;;;4977588;28;20227;-83
2022/03/03 05:15:08;;;;;;;59.10;52.08;;;;;;;;;;4977452;28;20214;-82
2022/03/03 05:17:35;;;;;;;56.80;50.85;;;;;;;;;;4977104;28;20637;-83
2022/03/03 05:20:03;;;;;;;60.75;54.03;;;;;;;;;;4977275;28;20258;-80
2022/03/03 05:22:30;;;;;;;59.50;50.65;;;;;;;;;;4977440;28;20195;-81
2022/03/03 05:24:57;;;;;;;56.47;50.63;;;;;;;;;;4976971;28;20223;-83
2022/03/03 05:27:25;;;;;;;57.05;50.85;;;;;;;;;;4977130;28;20200;-81
2022/03/03 05:29:54;;;;;;;58.33;50.35;;;;;;;;;;4976558;28;20319;-82
2022/03/03 05:32:22;;;;;;;57.30;51.33;;;;;;;;;;4975633;28;20258;-85
2022/03/03 05:34:49;;;;;;;62.95;52.15;;;;;;;;;;4977125;28;20275;-82
2022/03/03 05:37:21;;;;;;;59.60;52.05;;;;;;;;;;4976954;28;20649;-81
2022/03/03 05:39:49;;;;;;;55.75;49.65;;;;;;;;;;4976728;28;20196;-81
2022/03/03 05:42:19;;;;;;;51.45;46.15;;;;;;;;;;4976832;28;20612;-81
2022/03/03 05:44:48;;;;;;;49.67;44.70;;;;;;;;;;4977514;28;20231;-81
2022/03/03 05:47:17;;;;;;;48.45;43.83;;;;;;;;;;4996396;28;20191;-81
2022/03/03 05:49:45;;;;;;;51.97;46.78;;;;;;;;;;4996433;28;20674;-82
2022/03/03 05:52:13;;;;;;;49.33;44.13;;;;;;;;;;4995870;28;20191;-83
2022/03/03 05:54:40;;;;;;;45.35;41.05;;;;;;;;;;4996370;28;20202;-82
2022/03/03 05:57:12;;;;;;;42.00;37.85;;;;;;;;;;4995778;28;20633;-82
2022/03/03 05:59:42;;;;;;;37.15;33.80;;;;;;;;;;4995792;28;20283;-82
2022/03/03 06:02:10;;;;;;;38.05;34.38;;;;;;;;;;4978103;28;20207;-82
2022/03/03 06:04:39;;;;;;;38.50;34.70;;;;;;;;;;4995878;28;20241;-82
2022/03/03 06:07:09;;;;;;;37.20;33.70;;;;;;;;;;4995453;28;20196;-81
2022/03/03 06:09:36;;;;;;;38.42;34.72;;;;;;;;;;4996122;28;20191;-85
2022/03/03 06:12:06;;;;;;;39.95;35.92;;;;;;;;;;4996311;28;20191;-85
2022/03/03 06:14:38;;;;;;;37.80;34.17;;;;;;;;;;4996443;28;20195;-84
2022/03/03 06:17:06;;;;;;;37.85;34.45;;;;;;;;;;4995425;28;20226;-82
2022/03/03 06:19:39;;;;;;;40.08;35.97;;;;;;;;;;4995124;28;20205;-81
2022/03/03 06:22:08;;;;;;;39.72;36.17;;;;;;;;;;4995393;28;20253;-85
2022/03/03 06:24:35;;;;;;;42.03;38.03;;;;;;;;;;4996075;28;20210;-84
2022/03/03 06:27:03;;;;;;;39.03;35.72;;;;;;;;;;4996066;28;20632;-84
2022/03/03 06:29:32;;;;;;;41.17;37.45;;;;;;;;;;4995723;28;20223;-85
2022/03/03 06:31:59;;;;;;;41.17;37.17;;;;;;;;;;4995983;28;20208;-84
2022/03/03 06:34:27;;;;;;;40.80;37.00;;;;;;;;;;4996014;28;20273;-86
2022/03/03 06:36:55;;;;;;;41.33;37.42;;;;;;;;;;4995740;28;20192;-86
2022/03/03 06:39:24;;;;;;;37.38;33.78;;;;;;;;;;4993109;28;20202;-87
2022/03/03 06:41:51;;;;;;;36.55;33.50;;;;;;;;;;4996174;28;20191;-86
2022/03/03 06:44:19;;;;;;;34.08;31.27;;;;;;;;;;4995673;28;20207;-86
2022/03/03 06:46:47;;;;;;;35.97;32.58;;;;;;;;;;4995671;28;20234;-86
2022/03/03 06:49:14;;;;;;;37.83;34.33;;;;;;;;;;4995173;28;20195;-87
2022/03/03 06:51:42;;;;;;;30.00;27.50;;;;;;;;;;4995847;28;20607;-82
2022/03/03 06:54:13;;;;;;;37.22;33.78;;;;;;;;;;4996021;28;20541;-84
2022/03/03 06:56:46;;;;;;;35.45;32.47;;;;;;;;;;4995580;28;20191;-84
2022/03/03 06:59:15;;;;;;;37.22;33.97;;;;;;;;;;4995405;28;20203;-84
2022/03/03 07:01:43;;;;;;;38.65;34.80;;;;;;;;;;4995579;28;20197;-85
2022/03/03 07:04:11;;;;;;;36.08;32.78;;;;;;;;;;4995672;28;20191;-85
2022/03/03 07:06:38;;;;;;;35.20;32.13;;;;;;;;;;4995918;28;20187;-86
2022/03/03 07:09:08;;;;;;;35.53;32.25;;;;;;;;;;4978524;28;20597;-81
2022/03/03 07:11:35;;;;;;;36.78;33.58;;;;;;;;;;4994420;28;20191;-80
2022/03/03 07:14:04;;;;;;;37.55;34.42;;;;;;;;;;4994720;28;20697;-82
2022/03/03 07:16:36;;;;;;;37.05;33.83;;;;;;;;;;4994598;28;20192;-81
2022/03/03 07:19:05;;;;;;;36.88;33.67;;;;;;;;;;4994612;28;20202;-80
2022/03/03 07:21:37;;;;;;;37.20;33.83;;;;;;;;;;4994434;28;20198;-81
2022/03/03 07:24:06;;;;;;;35.75;32.53;;;;;;;;;;4994488;28;20557;-81
2022/03/03 07:26:34;;;;;;;36.63;33.47;;;;;;;;;;4994162;28;20226;-81
2022/03/03 07:29:04;;;;;;;37.38;33.85;;;;;;;;;;4994023;28;20229;-81
2022/03/03 07:31:35;;;;;;;36.75;33.25;;;;;;;;;;4993891;28;20195;-80
2022/03/03 07:34:06;;;;;;;35.92;32.85;;;;;;;;;;4994035;28;20187;-80
2022/03/03 07:36:35;;;;;;;34.10;31.10;;;;;;;;;;4993792;28;20679;-80
2022/03/03 07:39:03;;;;;;;33.58;30.70;;;;;;;;;;4993750;28;20641;-81
2022/03/03 07:41:32;;;;;;;33.60;30.90;;;;;;;;;;4976226;28;20290;-80
2022/03/03 07:44:01;;;;;;;33.22;30.55;;;;;;;;;;4993585;28;20231;-81
2022/03/03 07:46:28;;;;;;;33.25;30.42;;;;;;;;;;4993357;28;20242;-80
2022/03/03 07:48:58;;;;;;;32.90;30.40;;;;;;;;;;4993594;28;20703;-81
2022/03/03 07:51:27;;;;;;;32.28;29.50;;;;;;;;;;4993745;28;20206;-80
2022/03/03 07:53:55;;;;;;;32.60;29.92;;;;;;;;;;4993580;28;20549;-80
2022/03/03 07:56:24;;;;;;;31.88;29.23;;;;;;;;;;4993746;28;20210;-81
2022/03/03 07:58:52;;;;;;;32.50;29.92;;;;;;;;;;4976942;28;20191;-80
2022/03/03 08:01:21;;;;;;;34.30;31.67;;;;;;;;;;4993806;28;20657;-80
2022/03/03 08:03:48;;;;;;;34.33;31.63;;;;;;;;;;4994010;28;20199;-80
2022/03/03 08:06:17;;;;;;;33.58;30.70;;;;;;;;;;4993432;28;20297;-81
2022/03/03 08:08:46;;;;;;;31.50;29.20;;;;;;;;;;4993781;28;20191;-80
2022/03/03 08:11:13;;;;;;;31.50;29.13;;;;;;;;;;4994144;28;20545;-80
2022/03/03 08:13:42;;;;;;;31.23;28.88;;;;;;;;;;4993803;28;20257;-81
2022/03/03 08:16:10;;;;;;;28.67;26.27;;;;;;;;;;4993557;28;20249;-80
2022/03/03 08:18:37;;;;;;;32.22;29.75;;;;;;;;;;4994172;28;20194;-81
2022/03/03 08:21:05;;;;;;;31.65;29.35;;;;;;;;;;4993556;28;20637;-81
2022/03/03 08:23:35;;;;;;;31.25;28.75;;;;;;;;;;4993823;28;20576;-80
2022/03/03 08:26:03;;;;;;;32.88;29.83;;;;;;;;;;4993419;28;20253;-81
2022/03/03 08:28:32;;;;;;;31.17;28.77;;;;;;;;;;4975911;28;20280;-81
2022/03/03 08:31:00;;;;;;;32.10;29.67;;;;;;;;;;4993598;28;20202;-81
2022/03/03 08:33:34;;;;;;;31.77;29.27;;;;;;;;;;4976859;28;20213;-82
2022/03/03 08:36:01;;;;;;;30.23;28.02;;;;;;;;;;4994104;28;20199;-82
2022/03/03 08:38:35;;;;;;;32.65;30.15;;;;;;;;;;4994028;28;20583;-81
2022/03/03 08:41:05;;;;;;;29.60;27.30;;;;;;;;;;4993550;28;20227;-83
2022/03/03 08:43:33;;;;;;;31.13;28.63;;;;;;;;;;4993994;28;20587;-81
2022/03/03 08:46:02;;;;;;;30.17;27.65;;;;;;;;;;4997023;28;20288;-82
2022/03/03 08:48:31;;;;;;;31.27;28.75;;;;;;;;;;4998012;28;20222;-81
2022/03/03 08:50:59;;;;;;;30.48;27.92;;;;;;;;;;4997169;28;20195;-83
2022/03/03 08:53:26;;;;;;;28.65;26.30;;;;;;;;;;4997560;28;20545;-82
2022/03/03 08:55:54;;;;;;;32.40;29.75;;;;;;;;;;4997565;28;20202;-82
2022/03/03 08:58:23;;;;;;;32.63;30.00;;;;;;;;;;4997467;28;20210;-82
2022/03/03 09:00:51;;;;;;;31.48;29.17;;;;;;;;;;4997839;28;20198;-84
2022/03/03 09:03:22;;;;;;;33.20;30.45;;;;;;;;;;4998128;28;20191;-84
2022/03/03 09:05:50;;;;;;;33.42;30.63;;;;;;;;;;4997813;28;20218;-84
2022/03/03 09:08:17;;;;;;;31.92;29.60;;;;;;;;;;4997833;28;20202;-84
2022/03/03 09:10:45;;;;;;;33.00;30.60;;;;;;;;;;4997287;28;20202;-83
2022/03/03 09:13:12;;;;;;;32.17;29.55;;;;;;;;;;4997202;28;20218;-84
2022/03/03 09:15:42;;;;;;;31.25;28.92;;;;;;;;;;4997071;28;20195;-82
2022/03/03 09:18:09;;;;;;;34.20;31.23;;;;;;;;;;4979402;28;20211;-82
2022/03/03 09:20:37;;;;;;;31.88;29.13;;;;;;;;;;4997173;28;20191;-83
2022/03/03 09:23:05;;;;;;;33.15;30.63;;;;;;;;;;4997324;28;20202;-83
2022/03/03 09:25:36;;;;;;;31.98;29.48;;;;;;;;;;4996678;28;20222;-82
2022/03/03 09:28:03;;;;;;;29.88;27.77;;;;;;;;;;4996671;28;20716;-81
2022/03/03 09:30:30;;;;;;;32.58;29.92;;;;;;;;;;4996824;28;20217;-81
2022/03/03 09:33:00;;;;;;;32.85;30.35;;;;;;;;;;4996595;28;20202;-80
2022/03/03 09:35:28;;;;;;;33.38;30.83;;;;;;;;;;4996397;28;20644;-80
2022/03/03 09:37:55;;;;;;;30.67;28.27;;;;;;;;;;4996325;28;20220;-80
2022/03/03 09:40:23;;;;;;;32.28;29.80;;;;;;;;;;4995993;28;20230;-79
2022/03/03 09:42:57;;;;;;;33.00;30.48;;;;;;;;;;4995991;28;20194;-80
2022/03/03 09:45:27;;;;;;;32.95;30.48;;;;;;;;;;4995344;28;20240;-79
2022/03/03 09:47:58;;;;;;;30.77;28.45;;;;;;;;;;4995352;28;20576;-79
2022/03/03 09:50:30;;;;;;;34.45;31.63;;;;;;;;;;4995722;28;20286;-80
2022/03/03 09:52:59;;;;;;;31.90;29.60;;;;;;;;;;4995482;28;20230;-79
2022/03/03 09:55:30;;;;;;;32.75;30.15;;;;;;;;;;4995139;28;20194;-81
2022/03/03 09:57:59;;;;;;;32.70;30.30;;;;;;;;;;4995719;28;20238;-79
2022/03/03 10:00:32;;;;;;;31.45;29.15;;;;;;;;;;4995317;28;20608;-79
2022/03/03 10:03:03;;;;;;;31.67;29.30;;;;;;;;;;4995339;28;20207;-79
2022/03/03 10:05:36;;;;;;;29.58;27.58;;;;;;;;;;4995421;28;20226;-79
2022/03/03 10:08:08;;;;;;;30.95;28.45;;;;;;;;;;4995351;28;20210;-78
2022/03/03 10:10:37;;;;;;;30.08;27.77;;;;;;;;;;4995311;28;20273;-79
2022/03/03 10:13:08;;;;;;;30.83;28.30;;;;;;;;;;4978384;28;20194;-78
2022/03/03 10:15:37;;;;;;;30.88;28.42;;;;;;;;;;4994935;28;20230;-79
2022/03/03 10:18:06;;;;;;;28.92;26.83;;;;;;;;;;4994719;28;20261;-79
2022/03/03 10:20:53;;;;;;;29.52;27.38;;;;;;;;;;4995212;28;20206;-78
2022/03/03 10:23:22;;;;;;;29.98;27.75;;;;;;;;;;4995175;28;20191;-81
2022/03/03 10:25:54;;;;;;;26.65;24.75;;;;;;;;;;4995194;28;20221;-80
2022/03/03 10:28:24;;;;;;;29.10;26.90;;;;;;;;;;4995233;28;20229;-81
2022/03/03 10:31:00;;;;;;;28.63;26.42;;;;;;;;;;4995343;28;20273;-80
2022/03/03 10:33:31;;;;;;;33.85;31.13;;;;;;;;;;4994838;28;20282;-80
2022/03/03 10:36:02;;;;;;;33.95;31.33;;;;;;;;;;4994684;28;20207;-81
2022/03/03 10:38:31;;;;;;;32.38;29.77;;;;;;;;;;4992989;28;20756;-80
2022/03/03 10:41:00;;;;;;;33.92;31.25;;;;;;;;;;4994129;28;20226;-80
2022/03/03 10:43:28;;;;;;;30.45;27.88;;;;;;;;;;4993334;28;20270;-83
2022/03/03 10:45:58;;;;;;;33.15;30.65;;;;;;;;;;4979035;28;21236;-80
2022/03/03 10:48:28;;;;;;;31.85;29.30;;;;;;;;;;4993288;28;20886;-79
2022/03/03 10:51:00;;;;;;;33.85;31.17;;;;;;;;;;4992347;28;20672;-79
2022/03/03 10:53:32;;;;;;;29.20;26.90;;;;;;;;;;4994131;28;20641;-79
2022/03/03 10:56:04;;;;;;;29.77;27.77;;;;;;;;;;4993798;28;20521;-80
2022/03/03 10:58:47;;;;;;;29.65;27.35;;;;;;;;;;4992530;28;20194;-80
2022/03/03 11:01:17;;;;;;;28.20;26.23;;;;;;;;;;4992899;28;20620;-79
2022/03/03 11:03:50;;;;;;;32.63;29.95;;;;;;;;;;4960037;28;20636;-80
2022/03/03 11:06:24;;;;;;;33.72;31.02;;;;;;;;;;4961774;28;20277;-80
2022/03/03 11:08:56;;;;;;;34.08;31.08;;;;;;;;;;4992520;28;20206;-79
2022/03/03 11:11:26;;;;;;;32.63;30.10;;;;;;;;;;4992969;28;20199;-78
2022/03/03 11:13:56;;;;;;;33.38;30.67;;;;;;;;;;4992634;28;20191;-79
2022/03/03 11:16:25;;;;;;;33.45;30.75;;;;;;;;;;4992673;28;20231;-79
2022/03/03 11:18:54;;;;;;;29.45;27.15;;;;;;;;;;4993130;28;20226;-79
2022/03/03 11:21:24;;;;;;;26.48;24.65;;;;;;;;;;4971973;28;20282;-85
2022/03/03 11:23:58;;;;;;;27.80;25.60;;;;;;;;;;4957645;28;20211;-79
2022/03/03 11:26:29;;;;;;;30.92;28.63;;;;;;;;;;4979085;28;20653;-85
2022/03/03 11:29:04;;;;;;;31.20;28.65;;;;;;;;;;4964302;28;20195;-80
2022/03/03 11:31:34;;;;;;;29.10;26.90;;;;;;;;;;4957938;28;20191;-80
2022/03/03 11:34:21;;;;;;;29.30;27.00;;;;;;;;;;4976075;28;20601;-79
2022/03/03 11:36:51;;;;;;;29.20;27.00;;;;;;;;;;4963412;28;20195;-78
2022/03/03 11:39:39;;;;;;;30.67;28.42;;;;;;;;;;4965559;28;20293;-78
2022/03/03 11:42:28;;;;;;;28.05;25.88;;;;;;;;;;4984667;28;20277;-80
2022/03/03 11:44:58;;;;;;;28.23;26.23;;;;;;;;;;4977430;28;20702;-79
2022/03/03 11:47:28;;;;;;;30.95;28.52;;;;;;;;;;4964138;28;20230;-79
2022/03/03 11:50:05;;;;;;;28.33;25.98;;;;;;;;;;4962358;28;20260;-79
2022/03/03 11:55:28;;;;;;;30.08;27.88;;;;;;;;;;5258219;23;20243;-84
2022/03/03 11:57:59;;;;;;;27.93;25.93;;;;;;;;;;4973544;28;20191;-82
2022/03/03 12:00:29;;;;;;;29.25;27.15;;;;;;;;;;4953745;28;20678;-82
2022/03/03 12:02:58;;;;;;;29.27;27.13;;;;;;;;;;4962604;28;20290;-83
2022/03/03 12:05:36;;;;;;;32.08;29.08;;;;;;;;;;4948894;28;20211;-83
2022/03/03 12:08:06;;;;;;;29.73;27.52;;;;;;;;;;4958456;28;20691;-83
2022/03/03 12:10:38;;;;;;;29.80;27.55;;;;;;;;;;4960081;28;20290;-83
2022/03/03 12:13:26;;;;;;;29.65;27.35;;;;;;;;;;4959259;28;20199;-82
2022/03/03 12:16:13;;;;;;;29.77;27.48;;;;;;;;;;4970502;28;20207;-84
2022/03/03 12:18:42;;;;;;;27.67;25.47;;;;;;;;;;4953902;28;20238;-83
2022/03/03 12:21:32;;;;;;;31.73;29.33;;;;;;;;;;4962235;28;20445;-84
2022/03/03 12:24:27;;;;;;;31.65;29.20;;;;;;;;;;4935198;28;20536;-83
2022/03/03 12:27:19;;;;;;;29.98;27.67;;;;;;;;;;4977254;28;20378;-83
2022/03/03 12:29:53;;;;;;;29.98;27.73;;;;;;;;;;4926967;28;20211;-84
2022/03/03 12:32:36;;;;;;;31.98;29.30;;;;;;;;;;4955480;28;20258;-83
2022/03/03 12:35:09;;;;;;;30.33;27.98;;;;;;;;;;4961457;28;20200;-87
2022/03/03 12:37:43;;;;;;;31.55;29.10;;;;;;;;;;4978566;28;20210;-86
2022/03/03 12:40:14;;;;;;;30.17;27.73;;;;;;;;;;4957791;28;20227;-86
2022/03/03 12:42:46;;;;;;;29.52;27.30;;;;;;;;;;4965098;28;20211;-87
2022/03/03 12:45:18;;;;;;;28.47;26.50;;;;;;;;;;4979413;28;20191;-86
2022/03/03 12:47:48;;;;;;;27.90;25.70;;;;;;;;;;4955053;28;20952;-85
2022/03/03 12:50:18;;;;;;;29.20;27.10;;;;;;;;;;4977360;28;20440;-85
2022/03/03 12:52:57;;;;;;;29.15;26.92;;;;;;;;;;4970342;28;20216;-86
2022/03/03 12:55:31;;;;;;;30.17;28.13;;;;;;;;;;4975221;28;20297;-86
2022/03/03 13:38:39;;;;;;;29.80;27.70;;;;;;;;;;5152516;27;20507;-86
2022/03/03 13:41:24;;;;;;;27.13;25.20;;;;;;;;;;5131450;27;20539;-85
2022/03/03 13:44:10;;;;;;;27.20;25.40;;;;;;;;;;5130743;28;20448;-86
2022/03/03 13:46:39;;;;;;;26.50;24.70;;;;;;;;;;5131409;27;20479;-85
2022/03/03 13:49:08;;;;;;;28.50;26.70;;;;;;;;;;5131466;28;20418;-84
2022/03/03 13:51:37;;;;;;;28.97;26.77;;;;;;;;;;5131029;27;20448;-84
2022/03/03 13:54:09;;;;;;;26.60;25.00;;;;;;;;;;5131596;28;20462;-84
2022/03/03 13:56:39;;;;;;;25.97;23.77;;;;;;;;;;5131464;28;20450;-84
2022/03/03 13:59:09;;;;;;;25.47;23.77;;;;;;;;;;5131575;27;20447;-84
2022/03/03 14:01:38;;;;;;;27.05;25.35;;;;;;;;;;5132141;28;20791;-84
2022/03/03 14:04:14;;;;;;;27.27;25.53;;;;;;;;;;5132004;28;20198;-84
2022/03/03 14:06:44;;;;;;;27.87;25.90;;;;;;;;;;5131356;28;21049;-89
2022/03/03 14:09:23;;;;;;;26.67;25.03;;;;;;;;;;5131512;28;20451;-85
2022/03/03 14:11:55;;;;;;;26.80;25.00;;;;;;;;;;5131290;28;20462;-85
2022/03/03 14:14:28;;;;;;;28.60;26.77;;;;;;;;;;5130392;28;20443;-88
2022/03/03 14:16:58;;;;;;;27.35;25.55;;;;;;;;;;5131297;27;20281;-88
2022/03/03 14:19:29;;;;;;;27.08;25.15;;;;;;;;;;5131564;28;20198;-88
2022/03/03 14:21:58;;;;;;;27.10;25.07;;;;;;;;;;5130960;27;20211;-87
2022/03/03 14:24:30;;;;;;;28.45;26.45;;;;;;;;;;5131435;28;20483;-85
2022/03/03 14:26:59;;;;;;;27.47;25.77;;;;;;;;;;5131138;28;20226;-85
2022/03/03 14:29:28;;;;;;;26.33;24.63;;;;;;;;;;5131188;28;20990;-85
2022/03/03 14:31:58;;;;;;;27.87;25.73;;;;;;;;;;5131417;28;20427;-85
2022/03/03 14:34:26;;;;;;;29.05;27.05;;;;;;;;;;5131025;28;20441;-87
2022/03/03 14:36:55;;;;;;;27.10;25.40;;;;;;;;;;5138039;27;20256;-85
2022/03/03 14:39:26;;;;;;;27.03;25.33;;;;;;;;;;5138994;27;20459;-86
2022/03/03 14:41:57;;;;;;;27.33;25.63;;;;;;;;;;5138592;27;20986;-88
2022/03/03 14:44:25;;;;;;;27.77;25.87;;;;;;;;;;5137527;27;20192;-83
2022/03/03 14:46:56;;;;;;;27.80;25.90;;;;;;;;;;5139535;27;20898;-83
2022/03/03 14:49:25;;;;;;;27.93;26.23;;;;;;;;;;5140183;27;20635;-89
2022/03/03 14:51:55;;;;;;;28.33;26.50;;;;;;;;;;5140761;27;20809;-88
2022/03/03 14:54:25;;;;;;;27.50;25.20;;;;;;;;;;5139275;27;20453;-88
2022/03/03 14:56:54;;;;;;;27.07;25.47;;;;;;;;;;5139600;27;20446;-89
2022/03/03 14:59:24;;;;;;;27.50;25.70;;;;;;;;;;5138392;27;20436;-86
2022/03/03 15:01:54;;;;;;;26.50;24.80;;;;;;;;;;5138171;27;20485;-88
2022/03/03 15:04:23;;;;;;;26.97;25.17;;;;;;;;;;5137875;27;20779;-88
2022/03/03 15:06:52;;;;;;;28.80;26.70;;;;;;;;;;5137843;27;20447;-89
2022/03/03 15:09:21;;;;;;;29.53;27.53;;;;;;;;;;5119984;27;20508;-88
2022/03/03 15:11:49;;;;;;;28.67;26.63;;;;;;;;;;5137136;27;20437;-87
2022/03/03 15:14:19;;;;;;;29.50;27.50;;;;;;;;;;5136942;27;20446;-88
2022/03/03 15:16:49;;;;;;;29.00;27.00;;;;;;;;;;5137493;27;20421;-88